Аэропорт: Бухта Провидения. Провидения

ICAO: UHMD

METAR:
2019/03/26 05:00
UHMD 260500Z 15013G25MPS 8000 VCSH OVC013CB 02/01 Q0989 RMK QBB410 MT OBSC QFE741/0988
METAR:
Информация по данной станции не доступна